Latest Weather Observations for Friendly Beaches

IDT60801

Issued at 1:01 pm EDT Monday 22 December 2014 (issued every 30 minutes, with the page automatically refreshed every 10 minutes)

About weather observations | Map of weather stations | Latest weather observations for TAS | Other Formats
Station Details ID: 092114 Name: FRIENDLY BEACHES Lat: -42.00 Lon: 148.28 Height: 55.0 m
Data from the previous 72 hours. | See also: Recent months at Friendly Beaches
Date/Time
EDT
Temp
°C
App
Temp
°C
Dew
Point
Rel
Hum
%
Delta-T
°C
Wind Press
QNH
hPa
Press
MSL
hPa
Rain
since 9 am
mm
Dir
 
Spd
km/h
Gust
km/h
Spd
kts
Gust
kts
22/01:00pm 22.2 19.5 13.5 57 5.0 NE 20 32 11 17 1015.5 1015.4 0.0
22/12:30pm 20.9 18.8 13.6 63 4.2 NE 17 28 9 15 1015.6 1015.5 0.0
22/12:00pm 21.0 18.5 13.4 62 4.4 NE 19 28 10 15 1015.5 1015.4 0.0
22/11:30am 22.3 20.5 14.4 61 4.6 ENE 17 28 9 15 1015.7 1015.6 0.0
22/11:00am 20.6 18.6 13.8 65 3.9 ENE 17 24 9 13 1015.8 1015.7 0.0
22/10:30am 20.2 18.5 13.6 66 3.8 ENE 15 24 8 13 1016.0 1015.9 0.0
22/10:00am 19.2 18.0 14.0 72 3.0 ENE 13 17 7 9 1016.2 1016.1 0.0
22/09:30am 18.2 17.3 13.7 75 2.6 ENE 11 15 6 8 1016.3 1016.2 0.0
22/09:00am 16.4 15.9 12.8 79 2.0 NE 7 11 4 6 1016.4 1016.4 0.0
22/08:30am 16.6 15.9 13.1 80 2.0 ENE 9 15 5 8 1016.0 1015.9 0.0
22/08:00am 16.2 15.1 13.1 82 1.7 ENE 11 15 6 8 1015.7 1015.6 0.0
22/07:30am 15.7 15.0 13.2 85 1.4 E 9 13 5 7 1015.6 1015.5 0.0
22/07:00am 15.2 15.0 13.6 90 0.9 ESE 7 9 4 5 1015.6 1015.5 0.0
22/06:30am 14.5 13.7 13.0 91 0.8 ESE 9 13 5 7 1015.4 1015.3 0.0
22/05:30am 14.6 13.8 12.8 89 1.0 ESE 9 13 5 7 1014.8 1014.7 0.0
22/05:00am 14.7 13.4 12.6 87 1.2 ESE 11 13 6 7 1014.5 1014.4 0.0
22/04:30am 14.9 13.7 12.8 87 1.2 ESE 11 17 6 9 1014.5 1014.4 0.0
22/04:00am 14.8 13.9 12.5 86 1.3 ESE 9 11 5 6 1014.3 1014.2 0.0
22/03:30am 14.9 15.0 12.8 87 1.2 SE 4 9 2 5 1014.3 1014.2 0.0
22/03:00am 14.8 15.3 12.7 87 1.2 SE 2 6 1 3 1014.5 1014.4 0.0
22/02:30am 14.5 14.1 12.5 88 1.1 N 6 7 3 4 1014.2 1014.1 0.0
22/02:00am 14.3 14.7 12.5 89 1.0 NNW 2 4 1 2 1014.2 1014.1 0.0
22/01:30am 14.4 14.1 12.8 90 0.9 SE 6 11 3 6 1014.1 1014.0 0.0
22/01:00am 14.3 13.4 12.5 89 1.0 SE 9 15 5 8 1014.0 1013.9 0.0
22/12:30am 14.6 14.2 12.5 87 1.1 SSE 6 11 3 6 1013.7 1013.6 0.0
 
Date/Time
EDT
Temp
°C
App
Temp
°C
Dew
Point
Rel
Hum
%
Delta-T
°C
Wind Press
QNH
hPa
Press
MSL
hPa
Rain
since 9 am
mm
Dir
 
Spd
km/h
Gust
km/h
Spd
kts
Gust
kts
21/11:30pm 15.7 16.2 12.8 83 1.6 S 2 6 1 3 1013.6 1013.5 0.0
21/11:00pm 16.1 15.8 12.8 81 1.8 NW 6 7 3 4 1013.3 1013.2 0.0
21/10:30pm 16.9 15.9 12.4 75 2.5 WNW 9 15 5 8 1013.0 1012.9 0.0
21/10:00pm 18.2 16.2 11.5 65 3.7 SW 13 20 7 11 1012.6 1012.5 0.0
21/09:30pm 18.8 17.4 12.1 65 3.7 SW 11 17 6 9 1012.1 1012.0 0.0
21/09:00pm 20.1 18.1 11.6 58 4.7 SW 13 22 7 12 1011.4 1011.3 0.0
21/08:30pm 21.5 19.5 11.5 53 5.6 WSW 13 19 7 10 1010.4 1010.3 0.0
21/08:00pm 23.1 20.6 11.2 47 6.7 WSW 15 24 8 13 1009.9 1009.8 0.0
21/07:30pm 24.0 21.2 9.9 41 7.7 W 15 24 8 13 1009.3 1009.2 0.0
21/07:00pm 24.7 20.7 9.0 37 8.5 WNW 20 35 11 19 1009.0 1008.9 0.0
21/06:30pm 25.1 21.6 7.3 32 9.4 WNW 15 28 8 15 1008.8 1008.7 0.0
21/06:00pm 25.3 22.1 7.0 31 9.6 WNW 13 32 7 17 1008.6 1008.5 0.0
21/05:30pm 25.0 22.4 9.3 37 8.6 W 13 26 7 14 1008.7 1008.6 0.0
21/05:00pm 25.1 19.5 8.6 35 8.9 WNW 28 50 15 27 1008.4 1008.3 0.0
21/04:59pm 25.2 19.6 8.7 35 8.9 WNW 28 50 15 27 1008.4 1008.3 0.0
21/04:30pm 25.8 22.0 9.2 35 9.1 WNW 19 41 10 22 1008.4 1008.3 0.0
21/04:00pm 25.1 21.7 10.6 40 8.1 NNW 19 39 10 21 1008.6 1008.5 0.0
21/03:30pm 23.7 22.0 13.6 53 5.9 N 15 26 8 14 1008.9 1008.8 0.0
21/03:00pm 20.0 15.7 13.2 65 3.9 NNE 28 41 15 22 1009.5 1009.4 0.0
21/02:30pm 21.1 16.2 13.8 63 4.2 NNE 32 46 17 25 1010.0 1009.9 0.0
21/02:00pm 21.5 16.3 14.4 64 4.2 NNE 35 56 19 30 1010.4 1010.3 0.0
21/01:31pm 21.5 16.2 12.6 57 5.1 NNE 32 52 17 28 1010.9 1010.8 0.0
21/01:30pm 21.5 15.9 12.1 55 5.3 NNE 33 52 18 28 1010.9 1010.8 0.0
21/01:14pm 22.4 18.3 13.7 58 5.1 NNE 28 48 15 26 1011.2 1011.1 0.0
21/01:00pm 21.3 17.3 14.2 64 4.1 NNE 28 41 15 22 1011.5 1011.4 0.0
21/12:30pm 20.4 15.8 13.4 64 4.0 NNE 30 41 16 22 1011.9 1011.8 0.0
21/12:00pm 22.2 18.5 13.8 59 4.9 NE 26 37 14 20 1012.3 1012.2 0.0
21/11:30am 21.8 18.3 13.4 59 4.8 NE 24 35 13 19 1013.2 1013.1 0.0
21/11:00am 20.5 17.2 12.7 61 4.4 NNE 22 33 12 18 1013.7 1013.6 0.0
21/10:30am 20.2 17.3 12.2 60 4.5 NE 19 28 10 15 1014.2 1014.1 0.0
21/10:00am 19.9 17.3 11.9 60 4.5 NE 17 28 9 15 1014.3 1014.2 0.0
21/09:30am 19.6 16.5 11.6 60 4.4 NE 19 28 10 15 1014.6 1014.5 0.0
21/09:00am 19.1 16.4 11.7 62 4.1 NNE 17 30 9 16 1014.5 1014.4 0.0
21/08:30am 18.1 14.3 11.2 64 3.8 NNE 22 28 12 15 1014.2 1014.1 0.0
21/08:00am 17.5 14.6 11.1 66 3.5 NNE 17 26 9 14 1014.5 1014.4 0.0
21/07:30am 16.7 15.0 11.2 70 3.0 NNE 11 24 6 13 1014.7 1014.6 0.0
21/07:00am 15.6 14.8 11.0 74 2.5 N 6 13 3 7 1015.4 1015.3 0.0
21/06:30am 14.5 13.6 10.5 77 2.1 NNW 6 9 3 5 1015.5 1015.4 0.0
21/06:00am 13.9 13.6 10.1 78 2.0 W 2 4 1 2 1015.1 1015.0 0.0
21/05:30am 13.7 13.7 9.9 78 2.0 CALM 0 0 0 0 1014.5 1014.4 0.0
21/05:00am 13.9 13.9 9.9 77 2.1 CALM 0 0 0 0 1014.4 1014.3 0.0
21/04:30am 14.0 14.1 10.0 77 2.1 CALM 0 0 0 0 1014.3 1014.2 0.0
21/04:00am 14.0 12.9 10.0 77 2.1 ENE 6 9 3 5 1014.1 1014.0 0.0
21/03:30am 14.1 12.8 10.1 77 2.1 E 7 11 4 6 1014.5 1014.4 0.0
21/03:00am 14.1 12.8 9.9 76 2.2 ENE 7 9 4 5 1014.7 1014.6 0.0
21/02:30am 14.1 13.0 9.9 76 2.2 ENE 6 9 3 5 1015.1 1015.0 0.0
21/02:00am 14.1 12.8 9.9 76 2.2 E 7 9 4 5 1015.3 1015.2 0.0
21/01:30am 14.1 13.0 9.9 76 2.2 ENE 6 7 3 4 1015.6 1015.5 0.0
21/01:00am 14.1 12.7 9.5 74 2.4 ESE 7 11 4 6 1015.9 1015.8 0.0
21/12:30am 14.1 12.3 9.5 74 2.4 SE 9 13 5 7 1016.0 1015.9 0.0
21/12:00am 14.2 12.1 9.6 74 2.4 SE 11 15 6 8 1016.3 1016.2 0.0
 
Date/Time
EDT
Temp
°C
App
Temp
°C
Dew
Point
Rel
Hum
%
Delta-T
°C
Wind Press
QNH
hPa
Press
MSL
hPa
Rain
since 9 am
mm
Dir
 
Spd
km/h
Gust
km/h
Spd
kts
Gust
kts
20/11:30pm 14.2 11.4 10.0 76 2.2 SE 15 19 8 10 1016.2 1016.1 0.0
20/11:00pm 14.2 11.0 10.0 76 2.2 SE 17 20 9 11 1016.2 1016.1 0.0
20/10:30pm 14.3 10.7 9.9 75 2.3 SE 19 24 10 13 1016.3 1016.2 0.0
20/10:00pm 14.4 10.8 10.0 75 2.3 SE 19 24 10 13 1016.3 1016.2 0.0
20/09:30pm 14.5 11.1 10.5 77 2.1 SE 19 26 10 14 1016.2 1016.1 0.0
20/09:00pm 14.5 10.5 10.3 76 2.2 SE 22 32 12 17 1015.6 1015.5 0.0
20/08:30pm 14.7 10.6 10.1 74 2.4 SE 22 32 12 17 1015.6 1015.5 0.0
20/08:00pm 14.7 10.3 10.5 76 2.2 SE 24 32 13 17 1015.3 1015.2 0.0
20/07:30pm 15.1 10.7 10.5 74 2.4 SE 24 35 13 19 1014.8 1014.7 0.0
20/07:00pm 15.9 11.6 10.7 71 2.8 SE 24 35 13 19 1014.5 1014.4 0.0
20/06:30pm 18.5 14.5 11.8 65 3.7 SE 24 33 13 18 1014.0 1013.9 0.0
20/06:00pm 19.5 15.7 12.5 64 3.9 SE 24 32 13 17 1013.7 1013.6 0.0
20/05:30pm 19.0 15.0 11.8 63 4.0 SE 24 32 13 17 1013.5 1013.4 0.0
20/05:00pm 20.1 16.0 12.6 62 4.2 SE 26 32 14 17 1013.3 1013.2 0.0
20/04:30pm 20.7 16.1 12.4 59 4.7 SE 28 35 15 19 1013.0 1012.9 0.0
20/04:00pm 21.6 19.4 12.2 55 5.3 E 15 24 8 13 1012.8 1012.7 0.0
20/03:30pm 22.1 20.4 13.5 58 5.0 E 15 20 8 11 1012.5 1012.4 0.0
20/03:00pm 21.1 19.7 13.3 61 4.5 ENE 13 17 7 9 1012.3 1012.2 0.0
20/02:30pm 20.5 18.6 11.7 57 4.9 ENE 13 19 7 10 1012.0 1011.9 0.0
20/02:00pm 21.8 18.1 11.5 52 5.8 SE 22 28 12 15 1011.8 1011.7 0.0
20/01:30pm 23.1 19.5 11.8 49 6.4 SSE 22 37 12 20 1011.4 1011.3 0.0
20/01:00pm 22.8 18.6 8.1 39 7.8 WSW 20 30 11 16 1011.3 1011.2 0.0
20/12:30pm 23.0 19.8 10.1 44 7.1 WSW 17 28 9 15 1011.5 1011.4 0.0
20/12:00pm 22.0 17.7 9.2 44 6.9 WSW 22 33 12 18 1011.5 1011.4 0.0
20/11:30am 22.3 19.0 9.5 44 6.9 WSW 17 28 9 15 1011.4 1011.3 0.0
20/11:00am 20.2 18.0 9.5 50 5.7 WSW 11 22 6 12 1011.6 1011.5 0.0
20/10:30am 20.0 17.3 9.0 49 5.8 W 13 26 7 14 1011.7 1011.6 0.0
20/10:00am 19.6 17.0 9.5 52 5.4 WNW 13 26 7 14 1011.6 1011.5 0.0
20/09:30am 18.2 15.2 9.3 56 4.7 WNW 15 26 8 14 1011.9 1011.8 0.0
20/09:00am 17.9 14.6 8.2 53 5.0 WNW 15 26 8 14 1012.0 1011.9 0.0
20/08:30am 16.2 13.6 7.9 58 4.2 WNW 11 20 6 11 1011.9 1011.8 0.0
20/08:00am 15.3 14.0 7.6 60 3.8 NW 4 9 2 5 1011.8 1011.7 0.0
20/07:30am 14.8 12.7 6.6 58 4.0 NW 7 15 4 8 1011.7 1011.6 0.0
20/07:00am 14.7 12.2 6.5 58 4.0 NW 9 13 5 7 1011.5 1011.4 0.0
20/06:30am 13.8 11.7 6.7 62 3.4 NW 7 13 4 7 1011.5 1011.4 0.0
20/06:00am 12.6 11.8 6.6 67 2.9 CALM 0 0 0 0 1011.4 1011.3 0.0
20/05:30am 12.8 11.0 5.5 61 3.4 NW 4 9 2 5 1011.4 1011.3 0.0
20/05:00am 12.6 11.0 6.4 66 3.0 NNW 4 6 2 3 1011.5 1011.4 0.0
20/04:30am 12.7 11.9 6.3 65 3.0 CALM 0 0 0 0 1011.5 1011.4 0.0
20/04:00am 13.2 11.5 5.9 61 3.5 WNW 4 6 2 3 1011.6 1011.5 0.0
20/03:30am 13.1 10.6 6.5 64 3.2 NNW 9 15 5 8 1011.7 1011.6 0.0
20/03:00am 12.6 10.7 6.9 68 2.7 NW 6 9 3 5 1011.9 1011.8 0.0
20/02:30am 12.7 10.8 7.4 70 2.6 NNW 7 11 4 6 1012.3 1012.2 0.0
20/02:00am 12.3 10.6 7.4 72 2.4 NW 6 9 3 5 1012.7 1012.6 0.0
20/01:30am 12.4 11.4 7.3 71 2.5 NNE 2 6 1 3 1013.0 1012.9 0.0
20/01:00am 12.7 10.8 7.4 70 2.6 N 7 15 4 8 1013.2 1013.1 0.0
20/12:30am 12.4 10.4 7.1 70 2.6 NNW 7 9 4 5 1013.7 1013.6 0.0
20/12:00am 12.3 10.3 7.2 71 2.5 N 7 11 4 6 1013.9 1013.8 0.0
 
Date/Time
EDT
Temp
°C
App
Temp
°C
Dew
Point
Rel
Hum
%
Delta-T
°C
Wind Press
QNH
hPa
Press
MSL
hPa
Rain
since 9 am
mm
Dir
 
Spd
km/h
Gust
km/h
Spd
kts
Gust
kts
19/11:30pm 12.8 10.8 7.3 69 2.7 NNW 7 11 4 6 1014.3 1014.2 0.0
19/11:00pm 12.9 11.2 7.6 70 2.6 NNW 6 9 3 5 1014.5 1014.4 0.0
19/10:30pm 12.8 11.1 7.5 70 2.6 N 6 9 3 5 1014.7 1014.6 0.0
19/10:00pm 12.6 10.8 7.1 69 2.7 NNE 6 9 3 5 1014.6 1014.5 0.0
19/09:30pm 13.5 11.3 7.7 68 2.9 NE 9 13 5 7 1014.5 1014.4 0.0
19/09:00pm 13.1 10.8 7.3 68 2.8 ENE 9 13 5 7 1014.4 1014.3 0.0
19/08:30pm 13.4 11.1 7.4 67 2.9 ENE 9 13 5 7 1014.4 1014.3 0.0
19/08:00pm 13.9 11.1 7.0 63 3.4 E 11 17 6 9 1014.2 1014.1 0.0
19/07:30pm 14.7 11.4 6.5 58 4.0 E 13 17 7 9 1014.0 1013.9 0.0
19/07:00pm 16.4 13.3 7.3 55 4.5 E 13 17 7 9 1013.8 1013.7 0.0
19/06:30pm 16.9 13.9 7.5 54 4.7 E 13 17 7 9 1013.6 1013.5 0.0
19/06:00pm 16.2 13.1 7.4 56 4.4 E 13 19 7 10 1013.4 1013.3 0.0
19/05:30pm 16.9 13.2 7.8 55 4.6 E 17 20 9 11 1013.3 1013.2 0.0
19/05:00pm 17.4 13.9 7.2 51 5.1 E 15 20 8 11 1013.2 1013.1 0.0
19/04:30pm 18.6 15.5 7.1 47 5.8 E 13 20 7 11 1013.2 1013.1 0.0
19/04:00pm 17.0 13.4 6.8 51 5.1 ENE 15 20 8 11 1013.0 1012.9 0.0
19/03:30pm 17.9 14.6 6.4 47 5.7 ENE 13 19 7 10 1012.8 1012.7 0.0
19/03:00pm 19.4 15.4 6.5 43 6.5 E 17 22 9 12 1012.5 1012.4 0.0
19/02:30pm 20.7 16.6 8.0 44 6.6 E 19 24 10 13 1012.2 1012.1 0.0
19/02:00pm 19.5 15.6 6.9 44 6.4 E 17 24 9 13 1012.0 1011.9 0.0
19/01:30pm 20.1 15.9 8.1 46 6.2 ESE 20 26 11 14 1012.0 1011.9 0.0

Other Formats:

Comma delimited format used in spreadsheet applications
http://www.bom.gov.au/fwo/IDT60801/IDT60801.94987.axf

JavaScript Object Notation format (JSON) in row-major order
http://www.bom.gov.au/fwo/IDT60801/IDT60801.94987.json